sensor_id;sensor_type;location;lat;lon;timestamp;pressure;altitude;pressure_sealevel;temperature;humidity
32081;BME280;18593;51.426;7.030;2024-03-29T00:01:26;98179.06;;;9.72;56.11
32081;BME280;18593;51.426;7.030;2024-03-29T00:03:52;98184.63;;;9.71;56.45
32081;BME280;18593;51.426;7.030;2024-03-29T00:06:19;98180.38;;;9.75;56.53
32081;BME280;18593;51.426;7.030;2024-03-29T00:08:45;98171.06;;;9.77;56.77
32081;BME280;18593;51.426;7.030;2024-03-29T00:11:11;98165.47;;;9.74;55.42
32081;BME280;18593;51.426;7.030;2024-03-29T00:13:38;98175.56;;;9.67;55.98
32081;BME280;18593;51.426;7.030;2024-03-29T00:16:04;98170.53;;;9.75;56.38
32081;BME280;18593;51.426;7.030;2024-03-29T00:18:32;98164.97;;;9.77;56.22
32081;BME280;18593;51.426;7.030;2024-03-29T00:20:58;98156.16;;;9.71;56.21
32081;BME280;18593;51.426;7.030;2024-03-29T00:23:24;98151.63;;;9.72;55.87
32081;BME280;18593;51.426;7.030;2024-03-29T00:25:51;98150.84;;;9.71;55.82
32081;BME280;18593;51.426;7.030;2024-03-29T00:28:17;98154.28;;;9.67;56.42
32081;BME280;18593;51.426;7.030;2024-03-29T00:30:43;98154.03;;;9.73;56.67
32081;BME280;18593;51.426;7.030;2024-03-29T00:33:09;98151.34;;;9.68;55.95
32081;BME280;18593;51.426;7.030;2024-03-29T00:35:39;98137.53;;;9.66;56.07
32081;BME280;18593;51.426;7.030;2024-03-29T00:38:06;98135.91;;;9.70;56.14
32081;BME280;18593;51.426;7.030;2024-03-29T00:40:32;98146.31;;;9.67;56.11
32081;BME280;18593;51.426;7.030;2024-03-29T00:42:58;98159.34;;;9.68;55.92
32081;BME280;18593;51.426;7.030;2024-03-29T00:45:26;98165.97;;;9.71;56.32
32081;BME280;18593;51.426;7.030;2024-03-29T00:47:52;98170.25;;;9.72;55.93
32081;BME280;18593;51.426;7.030;2024-03-29T00:50:18;98188.09;;;9.66;55.65
32081;BME280;18593;51.426;7.030;2024-03-29T00:52:47;98183.03;;;9.75;56.52
32081;BME280;18593;51.426;7.030;2024-03-29T00:55:13;98171.31;;;9.71;55.65
32081;BME280;18593;51.426;7.030;2024-03-29T00:57:39;98185.69;;;9.70;55.29
32081;BME280;18593;51.426;7.030;2024-03-29T01:00:06;98184.63;;;9.71;55.57
32081;BME280;18593;51.426;7.030;2024-03-29T01:02:33;98180.91;;;9.72;55.82
32081;BME280;18593;51.426;7.030;2024-03-29T01:04:59;98176.91;;;9.74;56.40
32081;BME280;18593;51.426;7.030;2024-03-29T01:07:26;98180.66;;;9.73;55.32
32081;BME280;18593;51.426;7.030;2024-03-29T01:09:54;98185.16;;;9.73;55.63
32081;BME280;18593;51.426;7.030;2024-03-29T01:12:20;98168.41;;;9.72;54.91
32081;BME280;18593;51.426;7.030;2024-03-29T01:14:47;98165.19;;;9.70;54.80
32081;BME280;18593;51.426;7.030;2024-03-29T01:17:13;98167.34;;;9.73;54.83
32081;BME280;18593;51.426;7.030;2024-03-29T01:19:39;98164.16;;;9.76;55.32
32081;BME280;18593;51.426;7.030;2024-03-29T01:22:06;98164.97;;;9.77;55.37
32081;BME280;18593;51.426;7.030;2024-03-29T01:24:32;98165.47;;;9.79;54.87
32081;BME280;18593;51.426;7.030;2024-03-29T01:27:00;98168.41;;;9.77;54.93
32081;BME280;18593;51.426;7.030;2024-03-29T01:29:27;98171.06;;;9.77;54.65
32081;BME280;18593;51.426;7.030;2024-03-29T01:31:53;98176.69;;;9.81;54.32
32081;BME280;18593;51.426;7.030;2024-03-29T01:34:19;98181.75;;;9.88;54.98
32081;BME280;18593;51.426;7.030;2024-03-29T01:36:45;98176.69;;;9.91;54.16
32081;BME280;18593;51.426;7.030;2024-03-29T01:39:11;98167.66;;;9.92;54.08
32081;BME280;18593;51.426;7.030;2024-03-29T01:41:38;98165.78;;;9.93;54.29
32081;BME280;18593;51.426;7.030;2024-03-29T01:44:06;98165.78;;;9.98;54.17
32081;BME280;18593;51.426;7.030;2024-03-29T01:46:34;98170.03;;;9.99;54.14
32081;BME280;18593;51.426;7.030;2024-03-29T01:49:02;98170.03;;;9.99;53.75
32081;BME280;18593;51.426;7.030;2024-03-29T01:51:29;98165.78;;;9.98;53.90
32081;BME280;18593;51.426;7.030;2024-03-29T01:53:57;98167.38;;;9.99;53.90
32081;BME280;18593;51.426;7.030;2024-03-29T01:56:25;98161.53;;;10.02;53.89
32081;BME280;18593;51.426;7.030;2024-03-29T01:58:52;98158.88;;;10.02;54.21
32081;BME280;18593;51.426;7.030;2024-03-29T02:01:22;98154.06;;;9.99;54.07
32081;BME280;18593;51.426;7.030;2024-03-29T02:03:51;98148.50;;;10.00;53.78
32081;BME280;18593;51.426;7.030;2024-03-29T02:06:19;98139.16;;;10.03;54.13
32081;BME280;18593;51.426;7.030;2024-03-29T02:08:46;98145.84;;;10.00;53.70
32081;BME280;18593;51.426;7.030;2024-03-29T02:11:14;98139.97;;;9.98;53.73
32081;BME280;18593;51.426;7.030;2024-03-29T02:13:41;98122.38;;;9.97;54.20
32081;BME280;18593;51.426;7.030;2024-03-29T02:16:08;98115.47;;;9.96;54.57
32081;BME280;18593;51.426;7.030;2024-03-29T02:18:37;98103.75;;;9.97;54.54
32081;BME280;18593;51.426;7.030;2024-03-29T02:21:05;98094.41;;;10.00;54.21
32081;BME280;18593;51.426;7.030;2024-03-29T02:23:34;98102.69;;;9.98;53.79
32081;BME280;18593;51.426;7.030;2024-03-29T02:26:04;98095.25;;;10.00;54.02
32081;BME280;18593;51.426;7.030;2024-03-29T02:28:31;98085.13;;;10.02;54.13
32081;BME280;18593;51.426;7.030;2024-03-29T02:31:00;98088.56;;;10.03;53.91
32081;BME280;18593;51.426;7.030;2024-03-29T02:33:27;98085.91;;;10.08;54.26
32081;BME280;18593;51.426;7.030;2024-03-29T02:35:54;98098.94;;;10.10;53.79
32081;BME280;18593;51.426;7.030;2024-03-29T02:38:23;98088.84;;;10.06;53.99
32081;BME280;18593;51.426;7.030;2024-03-29T02:40:50;98090.72;;;10.06;53.92
32081;BME280;18593;51.426;7.030;2024-03-29T02:43:19;98106.13;;;10.09;54.21
32081;BME280;18593;51.426;7.030;2024-03-29T02:45:46;98123.19;;;10.03;54.27
32081;BME280;18593;51.426;7.030;2024-03-29T02:48:14;98118.38;;;10.05;53.90
32081;BME280;18593;51.426;7.030;2024-03-29T02:50:41;98132.25;;;10.07;52.69
32081;BME280;18593;51.426;7.030;2024-03-29T02:53:07;98118.13;;;10.12;53.26
32081;BME280;18593;51.426;7.030;2024-03-29T02:55:34;98128.78;;;10.12;52.96
32081;BME280;18593;51.426;7.030;2024-03-29T02:58:00;98128.00;;;10.16;53.28
32081;BME280;18593;51.426;7.030;2024-03-29T03:00:29;98128.53;;;10.18;53.72
32081;BME280;18593;51.426;7.030;2024-03-29T03:02:55;98145.56;;;10.17;53.63
32081;BME280;18593;51.426;7.030;2024-03-29T03:05:23;98138.91;;;10.20;53.97
32081;BME280;18593;51.426;7.030;2024-03-29T03:07:50;98141.31;;;10.21;53.53
32081;BME280;18593;51.426;7.030;2024-03-29T03:10:34;98129.06;;;10.20;53.73
32081;BME280;18593;51.426;7.030;2024-03-29T03:13:18;98134.66;;;10.24;54.82
32081;BME280;18593;51.426;7.030;2024-03-29T03:15:48;98123.78;;;10.25;55.40
32081;BME280;18593;51.426;7.030;2024-03-29T03:18:15;98136.00;;;10.21;54.88
32081;BME280;18593;51.426;7.030;2024-03-29T03:20:41;98145.28;;;10.19;54.68
32081;BME280;18593;51.426;7.030;2024-03-29T03:23:08;98134.91;;;10.17;55.42
32081;BME280;18593;51.426;7.030;2024-03-29T03:25:34;98127.72;;;10.13;55.42
32081;BME280;18593;51.426;7.030;2024-03-29T03:28:02;98129.06;;;10.15;55.96
32081;BME280;18593;51.426;7.030;2024-03-29T03:30:29;98109.59;;;10.15;55.63
32081;BME280;18593;51.426;7.030;2024-03-29T03:32:57;98117.06;;;10.18;56.44
32081;BME280;18593;51.426;7.030;2024-03-29T03:35:25;98112.53;;;10.18;56.09
32081;BME280;18593;51.426;7.030;2024-03-29T03:37:51;98120.25;;;10.20;56.23
32081;BME280;18593;51.426;7.030;2024-03-29T03:40:18;98113.34;;;10.24;57.09
32081;BME280;18593;51.426;7.030;2024-03-29T03:42:44;98108.59;;;10.26;57.61
32081;BME280;18593;51.426;7.030;2024-03-29T03:45:11;98110.19;;;10.27;57.80
32081;BME280;18593;51.426;7.030;2024-03-29T03:47:37;98109.09;;;10.28;58.19
32081;BME280;18593;51.426;7.030;2024-03-29T03:50:06;98116.28;;;10.27;57.54
32081;BME280;18593;51.426;7.030;2024-03-29T03:52:32;98112.56;;;10.28;58.16
32081;BME280;18593;51.426;7.030;2024-03-29T03:54:59;98112.56;;;10.28;58.03
32081;BME280;18593;51.426;7.030;2024-03-29T03:57:26;98114.97;;;10.25;58.13
32081;BME280;18593;51.426;7.030;2024-03-29T03:59:53;98105.91;;;10.26;58.83
32081;BME280;18593;51.426;7.030;2024-03-29T04:02:19;98110.97;;;10.27;59.09
32081;BME280;18593;51.426;7.030;2024-03-29T04:04:47;98109.09;;;10.28;59.01
32081;BME280;18593;51.426;7.030;2024-03-29T04:07:14;98111.50;;;10.29;58.97
32081;BME280;18593;51.426;7.030;2024-03-29T04:09:41;98124.28;;;10.27;58.55
32081;BME280;18593;51.426;7.030;2024-03-29T04:12:08;98121.09;;;10.25;58.46
32081;BME280;18593;51.426;7.030;2024-03-29T04:14:35;98135.22;;;10.26;58.81
32081;BME280;18593;51.426;7.030;2024-03-29T04:17:01;98133.63;;;10.25;59.32
32081;BME280;18593;51.426;7.030;2024-03-29T04:19:28;98148.53;;;10.26;59.03
32081;BME280;18593;51.426;7.030;2024-03-29T04:21:54;98144.28;;;10.25;59.41
32081;BME280;18593;51.426;7.030;2024-03-29T04:24:23;98140.78;;;10.24;59.79
32081;BME280;18593;51.426;7.030;2024-03-29T04:26:49;98129.09;;;10.25;59.86
32081;BME280;18593;51.426;7.030;2024-03-29T04:29:16;98137.88;;;10.26;59.97
32081;BME280;18593;51.426;7.030;2024-03-29T04:31:45;98134.44;;;10.25;59.84
32081;BME280;18593;51.426;7.030;2024-03-29T04:34:12;98129.91;;;10.26;60.17
32081;BME280;18593;51.426;7.030;2024-03-29T04:36:38;98144.00;;;10.26;60.19
32081;BME280;18593;51.426;7.030;2024-03-29T04:39:05;98136.00;;;10.26;60.34
32081;BME280;18593;51.426;7.030;2024-03-29T04:41:34;98145.09;;;10.25;60.74
32081;BME280;18593;51.426;7.030;2024-03-29T04:44:01;98143.72;;;10.23;61.20
32081;BME280;18593;51.426;7.030;2024-03-29T04:46:29;98137.59;;;10.22;61.99
32081;BME280;18593;51.426;7.030;2024-03-29T04:48:57;98140.53;;;10.21;62.56
32081;BME280;18593;51.426;7.030;2024-03-29T04:51:24;98141.56;;;10.20;63.32
32081;BME280;18593;51.426;7.030;2024-03-29T04:53:52;98148.22;;;10.17;63.70
32081;BME280;18593;51.426;7.030;2024-03-29T04:56:19;98150.38;;;10.15;64.51
32081;BME280;18593;51.426;7.030;2024-03-29T04:58:48;98145.56;;;10.12;64.90
32081;BME280;18593;51.426;7.030;2024-03-29T05:01:16;98161.00;;;10.10;64.66
32081;BME280;18593;51.426;7.030;2024-03-29T05:03:43;98159.69;;;10.07;64.89
32081;BME280;18593;51.426;7.030;2024-03-29T05:06:10;98151.97;;;10.06;65.59
32081;BME280;18593;51.426;7.030;2024-03-29T05:08:37;98160.47;;;10.03;65.98
32081;BME280;18593;51.426;7.030;2024-03-29T05:11:04;98151.97;;;10.01;66.34
32081;BME280;18593;51.426;7.030;2024-03-29T05:13:33;98141.81;;;9.98;66.27
32081;BME280;18593;51.426;7.030;2024-03-29T05:16:02;98128.78;;;9.96;66.43
32081;BME280;18593;51.426;7.030;2024-03-29T05:18:29;98124.25;;;9.97;66.80
32081;BME280;18593;51.426;7.030;2024-03-29T05:20:56;98117.34;;;9.96;66.91
32081;BME280;18593;51.426;7.030;2024-03-29T05:23:23;98126.38;;;9.95;67.17
32081;BME280;18593;51.426;7.030;2024-03-29T05:25:50;98129.81;;;9.95;67.11
32081;BME280;18593;51.426;7.030;2024-03-29T05:28:18;98136.22;;;9.94;66.84
32081;BME280;18593;51.426;7.030;2024-03-29T05:30:45;98123.69;;;9.95;67.24
32081;BME280;18593;51.426;7.030;2024-03-29T05:33:13;98114.13;;;9.94;67.52
32081;BME280;18593;51.426;7.030;2024-03-29T05:35:41;98116.25;;;9.92;67.60
32081;BME280;18593;51.426;7.030;2024-03-29T05:38:08;98110.38;;;9.90;67.90
32081;BME280;18593;51.426;7.030;2024-03-29T05:40:35;98113.31;;;9.88;67.83
32081;BME280;18593;51.426;7.030;2024-03-29T05:43:03;98109.06;;;9.87;68.00
32081;BME280;18593;51.426;7.030;2024-03-29T05:45:31;98112.81;;;9.86;68.27
32081;BME280;18593;51.426;7.030;2024-03-29T05:47:58;98110.13;;;9.86;68.54
32081;BME280;18593;51.426;7.030;2024-03-29T05:50:27;98122.63;;;9.86;68.69
32081;BME280;18593;51.426;7.030;2024-03-29T05:52:54;98125.03;;;9.87;68.97
32081;BME280;18593;51.426;7.030;2024-03-29T05:55:22;98105.34;;;9.83;68.95
32081;BME280;18593;51.426;7.030;2024-03-29T05:57:49;98081.66;;;9.82;69.11
32081;BME280;18593;51.426;7.030;2024-03-29T06:00:17;98089.88;;;9.80;69.28
32081;BME280;18593;51.426;7.030;2024-03-29T06:02:44;98088.28;;;9.79;69.32
32081;BME280;18593;51.426;7.030;2024-03-29T06:05:13;98088.56;;;9.77;69.98
32081;BME280;18593;51.426;7.030;2024-03-29T06:07:42;98091.22;;;9.77;69.49
32081;BME280;18593;51.426;7.030;2024-03-29T06:10:09;98091.75;;;9.74;69.74
32081;BME280;18593;51.426;7.030;2024-03-29T06:12:37;98095.47;;;9.73;69.83
32081;BME280;18593;51.426;7.030;2024-03-29T06:15:06;98097.06;;;9.74;69.83
32081;BME280;18593;51.426;7.030;2024-03-29T06:17:50;98094.66;;;9.73;69.59
32081;BME280;18593;51.426;7.030;2024-03-29T06:20:18;98089.06;;;9.74;69.63
32081;BME280;18593;51.426;7.030;2024-03-29T06:22:46;98084.31;;;9.76;69.58
32081;BME280;18593;51.426;7.030;2024-03-29T06:25:15;98095.75;;;9.77;69.51
32081;BME280;18593;51.426;7.030;2024-03-29T06:27:42;98099.72;;;9.74;69.43
32081;BME280;18593;51.426;7.030;2024-03-29T06:30:13;98097.06;;;9.74;69.59
32081;BME280;18593;51.426;7.030;2024-03-29T06:32:41;98101.59;;;9.74;69.44
32081;BME280;18593;51.426;7.030;2024-03-29T06:35:08;98099.19;;;9.72;69.26
32081;BME280;18593;51.426;7.030;2024-03-29T06:37:36;98095.47;;;9.73;69.58
32081;BME280;18593;51.426;7.030;2024-03-29T06:40:09;98098.94;;;9.74;70.11
32081;BME280;18593;51.426;7.030;2024-03-29T06:42:37;98096.00;;;9.75;70.29
32081;BME280;18593;51.426;7.030;2024-03-29T06:45:08;98090.66;;;9.75;70.26
32081;BME280;18593;51.426;7.030;2024-03-29T06:47:36;98086.97;;;9.76;70.23
32081;BME280;18593;51.426;7.030;2024-03-29T06:50:04;98080.56;;;9.77;70.64
32081;BME280;18593;51.426;7.030;2024-03-29T06:52:32;98078.44;;;9.79;70.74
32081;BME280;18593;51.426;7.030;2024-03-29T06:55:00;98078.19;;;9.81;70.82
32081;BME280;18593;51.426;7.030;2024-03-29T06:57:32;98082.16;;;9.84;70.68
32081;BME280;18593;51.426;7.030;2024-03-29T07:00:02;98079.22;;;9.80;70.99
32081;BME280;18593;51.426;7.030;2024-03-29T07:02:30;98083.25;;;9.83;71.03
32081;BME280;18593;51.426;7.030;2024-03-29T07:04:57;98091.22;;;9.83;70.74
32081;BME280;18593;51.426;7.030;2024-03-29T07:07:31;98073.91;;;9.85;71.06
32081;BME280;18593;51.426;7.030;2024-03-29T07:09:58;98083.75;;;9.79;70.74
32081;BME280;18593;51.426;7.030;2024-03-29T07:12:25;98090.66;;;9.80;70.68
32081;BME280;18593;51.426;7.030;2024-03-29T07:14:54;98072.03;;;9.86;71.43
32081;BME280;18593;51.426;7.030;2024-03-29T07:17:22;98085.91;;;9.88;71.83
32081;BME280;18593;51.426;7.030;2024-03-29T07:19:50;98080.31;;;9.89;72.14
32081;BME280;18593;51.426;7.030;2024-03-29T07:22:17;98093.38;;;9.91;72.54
32081;BME280;18593;51.426;7.030;2024-03-29T07:24:45;98085.63;;;9.94;72.60
32081;BME280;18593;51.426;7.030;2024-03-29T07:27:15;98083.25;;;9.93;72.23
32081;BME280;18593;51.426;7.030;2024-03-29T07:29:43;98083.25;;;9.98;72.37
32081;BME280;18593;51.426;7.030;2024-03-29T07:32:13;98082.97;;;9.99;72.11
32081;BME280;18593;51.426;7.030;2024-03-29T07:34:41;98083.75;;;10.00;72.52
32081;BME280;18593;51.426;7.030;2024-03-29T07:37:09;98097.34;;;10.03;72.80
32081;BME280;18593;51.426;7.030;2024-03-29T07:39:40;98105.63;;;10.02;73.18
32081;BME280;18593;51.426;7.030;2024-03-29T07:42:08;98113.34;;;9.98;73.03
32081;BME280;18593;51.426;7.030;2024-03-29T07:44:35;98107.22;;;9.98;73.32
32081;BME280;18593;51.426;7.030;2024-03-29T07:47:03;98126.66;;;9.98;73.22
32081;BME280;18593;51.426;7.030;2024-03-29T07:49:32;98128.00;;;10.01;73.33
32081;BME280;18593;51.426;7.030;2024-03-29T07:51:59;98136.50;;;10.03;73.69
32081;BME280;18593;51.426;7.030;2024-03-29T07:54:28;98137.56;;;10.07;73.80
32081;BME280;18593;51.426;7.030;2024-03-29T07:56:55;98133.03;;;10.07;74.06
32081;BME280;18593;51.426;7.030;2024-03-29T07:59:26;98148.75;;;10.04;73.98
32081;BME280;18593;51.426;7.030;2024-03-29T08:01:53;98149.81;;;10.03;74.51
32081;BME280;18593;51.426;7.030;2024-03-29T08:04:22;98153.28;;;10.03;75.11
32081;BME280;18593;51.426;7.030;2024-03-29T08:06:51;98154.34;;;10.07;75.46
32081;BME280;18593;51.426;7.030;2024-03-29T08:09:19;98152.22;;;10.15;75.04
32081;BME280;18593;51.426;7.030;2024-03-29T08:11:46;98152.75;;;10.17;74.95
32081;BME280;18593;51.426;7.030;2024-03-29T08:14:13;98164.22;;;10.12;75.90
32081;BME280;18593;51.426;7.030;2024-03-29T08:16:40;98157.28;;;10.11;76.78
32081;BME280;18593;51.426;7.030;2024-03-29T08:19:08;98157.00;;;10.07;77.74
32081;BME280;18593;51.426;7.030;2024-03-29T08:21:35;98151.16;;;10.05;78.41
32081;BME280;18593;51.426;7.030;2024-03-29T08:24:04;98151.69;;;10.13;77.98
32081;BME280;18593;51.426;7.030;2024-03-29T08:26:32;98148.75;;;10.19;77.80
32081;BME280;18593;51.426;7.030;2024-03-29T08:29:00;98143.97;;;10.21;77.85
32081;BME280;18593;51.426;7.030;2024-03-29T08:31:27;98163.16;;;10.23;78.44
32081;BME280;18593;51.426;7.030;2024-03-29T08:33:54;98146.66;;;10.26;78.39
32081;BME280;18593;51.426;7.030;2024-03-29T08:36:22;98151.72;;;10.28;78.45
32081;BME280;18593;51.426;7.030;2024-03-29T08:38:49;98152.53;;;10.34;77.88
32081;BME280;18593;51.426;7.030;2024-03-29T08:44:21;98156.81;;;10.45;78.35
32081;BME280;18593;51.426;7.030;2024-03-29T08:46:48;98155.19;;;10.49;78.38
32081;BME280;18593;51.426;7.030;2024-03-29T08:49:15;98153.06;;;10.51;78.76
32081;BME280;18593;51.426;7.030;2024-03-29T08:51:43;98154.66;;;10.52;78.59
32081;BME280;18593;51.426;7.030;2024-03-29T08:54:10;98153.34;;;10.49;78.78
32081;BME280;18593;51.426;7.030;2024-03-29T08:56:40;98168.50;;;10.49;78.96
32081;BME280;18593;51.426;7.030;2024-03-29T08:59:07;98169.06;;;10.51;78.89
32081;BME280;18593;51.426;7.030;2024-03-29T09:01:36;98167.19;;;10.56;79.44
32081;BME280;18593;51.426;7.030;2024-03-29T09:04:04;98181.31;;;10.57;79.74
32081;BME280;18593;51.426;7.030;2024-03-29T09:06:33;98197.00;;;10.58;79.73
32081;BME280;18593;51.426;7.030;2024-03-29T09:09:00;98192.25;;;10.61;79.88
32081;BME280;18593;51.426;7.030;2024-03-29T09:11:28;98185.56;;;10.63;79.82
32081;BME280;18593;51.426;7.030;2024-03-29T09:13:57;98190.66;;;10.54;80.13
32081;BME280;18593;51.426;7.030;2024-03-29T09:16:25;98185.03;;;10.56;80.59
32081;BME280;18593;51.426;7.030;2024-03-29T09:18:54;98184.50;;;10.64;80.81
32081;BME280;18593;51.426;7.030;2024-03-29T09:21:21;98189.28;;;10.72;80.68
32081;BME280;18593;51.426;7.030;2024-03-29T09:23:48;98192.50;;;10.79;80.91
32081;BME280;18593;51.426;7.030;2024-03-29T09:26:18;98176.72;;;10.83;81.29
32081;BME280;18593;51.426;7.030;2024-03-29T09:28:45;98181.81;;;10.85;81.77
32081;BME280;18593;51.426;7.030;2024-03-29T09:31:14;98182.34;;;10.87;81.17
32081;BME280;18593;51.426;7.030;2024-03-29T09:33:41;98191.13;;;10.92;81.00
32081;BME280;18593;51.426;7.030;2024-03-29T09:36:08;98184.97;;;10.97;80.97
32081;BME280;18593;51.426;7.030;2024-03-29T09:38:40;98181.00;;;10.99;80.09
32081;BME280;18593;51.426;7.030;2024-03-29T09:41:11;98194.84;;;11.01;80.08
32081;BME280;18593;51.426;7.030;2024-03-29T09:43:41;98200.16;;;11.06;81.71
32081;BME280;18593;51.426;7.030;2024-03-29T09:46:10;98192.47;;;11.00;81.00
32081;BME280;18593;51.426;7.030;2024-03-29T09:48:40;98188.97;;;11.04;81.32
32081;BME280;18593;51.426;7.030;2024-03-29T09:51:09;98193.50;;;11.09;82.37
32081;BME280;18593;51.426;7.030;2024-03-29T09:53:41;98198.56;;;11.11;82.05
32081;BME280;18593;51.426;7.030;2024-03-29T09:56:08;98210.28;;;11.15;82.08
32081;BME280;18593;51.426;7.030;2024-03-29T09:58:38;98203.59;;;11.17;82.82
32081;BME280;18593;51.426;7.030;2024-03-29T10:01:06;98195.38;;;11.14;81.76
32081;BME280;18593;51.426;7.030;2024-03-29T10:03:38;98191.31;;;11.21;81.47
32081;BME280;18593;51.426;7.030;2024-03-29T10:06:07;98185.19;;;11.26;80.70
32081;BME280;18593;51.426;7.030;2024-03-29T10:08:35;98183.84;;;11.28;79.84
32081;BME280;18593;51.426;7.030;2024-03-29T10:11:03;98193.97;;;11.31;79.77
32081;BME280;18593;51.426;7.030;2024-03-29T10:13:30;98192.34;;;11.35;79.69
32081;BME280;18593;51.426;7.030;2024-03-29T10:15:57;98201.69;;;11.38;80.25
32081;BME280;18593;51.426;7.030;2024-03-29T10:18:28;98206.75;;;11.40;80.25
32081;BME280;18593;51.426;7.030;2024-03-29T10:21:07;98216.91;;;11.43;80.21
32081;BME280;18593;51.426;7.030;2024-03-29T10:23:35;98216.34;;;11.46;79.62
32081;BME280;18593;51.426;7.030;2024-03-29T10:26:08;98215.00;;;11.48;79.82
32081;BME280;18593;51.426;7.030;2024-03-29T10:28:39;98224.34;;;11.46;79.05
32081;BME280;18593;51.426;7.030;2024-03-29T10:31:06;98222.47;;;11.46;79.21
32081;BME280;18593;51.426;7.030;2024-03-29T10:33:34;98229.16;;;11.49;79.24
32081;BME280;18593;51.426;7.030;2024-03-29T10:36:03;98229.66;;;11.51;79.12
32081;BME280;18593;51.426;7.030;2024-03-29T10:38:33;98227.78;;;11.51;79.35
32081;BME280;18593;51.426;7.030;2024-03-29T10:41:02;98224.31;;;11.51;80.35
32081;BME280;18593;51.426;7.030;2024-03-29T10:43:32;98225.13;;;11.51;79.99
32081;BME280;18593;51.426;7.030;2024-03-29T10:46:00;98227.53;;;11.53;79.26
32081;BME280;18593;51.426;7.030;2024-03-29T10:48:27;98223.78;;;11.54;78.88
32081;BME280;18593;51.426;7.030;2024-03-29T10:50:55;98212.28;;;11.58;79.18
32081;BME280;18593;51.426;7.030;2024-03-29T10:53:26;98204.78;;;11.66;80.34
32081;BME280;18593;51.426;7.030;2024-03-29T10:55:58;98208.75;;;11.73;79.49
32081;BME280;18593;51.426;7.030;2024-03-29T10:58:29;98224.75;;;11.78;79.26
32081;BME280;18593;51.426;7.030;2024-03-29T11:00:57;98221.00;;;11.79;78.39
32081;BME280;18593;51.426;7.030;2024-03-29T11:03:32;98223.66;;;11.90;78.21
32081;BME280;18593;51.426;7.030;2024-03-29T11:06:03;98221.22;;;11.98;79.25
32081;BME280;18593;51.426;7.030;2024-03-29T11:08:32;98222.78;;;12.04;80.39
32081;BME280;18593;51.426;7.030;2024-03-29T11:11:08;98221.94;;;12.09;80.53
32081;BME280;18593;51.426;7.030;2024-03-29T11:13:38;98204.84;;;12.10;80.21
32081;BME280;18593;51.426;7.030;2024-03-29T11:16:08;98200.53;;;12.14;78.38
32081;BME280;18593;51.426;7.030;2024-03-29T11:18:36;98202.91;;;12.21;78.47
32081;BME280;18593;51.426;7.030;2024-03-29T11:21:04;98215.97;;;12.27;77.57
32081;BME280;18593;51.426;7.030;2024-03-29T11:23:35;98219.59;;;12.42;77.34
32081;BME280;18593;51.426;7.030;2024-03-29T11:26:03;98221.38;;;12.56;78.42
32081;BME280;18593;51.426;7.030;2024-03-29T11:28:33;98227.19;;;12.63;75.51
32081;BME280;18593;51.426;7.030;2024-03-29T11:31:02;98228.75;;;12.70;75.65
32081;BME280;18593;51.426;7.030;2024-03-29T11:33:35;98246.06;;;12.77;75.31
32081;BME280;18593;51.426;7.030;2024-03-29T11:36:09;98235.81;;;12.89;75.79
32081;BME280;18593;51.426;7.030;2024-03-29T11:38:37;98251.78;;;13.00;74.26
32081;BME280;18593;51.426;7.030;2024-03-29T11:41:06;98236.13;;;13.12;75.08
32081;BME280;18593;51.426;7.030;2024-03-29T11:43:36;98222.69;;;13.17;72.72
32081;BME280;18593;51.426;7.030;2024-03-29T11:46:08;98214.72;;;13.12;71.69
32081;BME280;18593;51.426;7.030;2024-03-29T11:48:36;98219.06;;;13.08;71.70
32081;BME280;18593;51.426;7.030;2024-03-29T11:51:05;98195.00;;;13.03;70.96
32081;BME280;18593;51.426;7.030;2024-03-29T11:53:34;98214.00;;;13.01;72.49
32081;BME280;18593;51.426;7.030;2024-03-29T11:56:02;98221.50;;;13.04;74.34
32081;BME280;18593;51.426;7.030;2024-03-29T11:58:32;98218.03;;;13.04;73.04
32081;BME280;18593;51.426;7.030;2024-03-29T12:01:01;98254.09;;;13.06;71.79
32081;BME280;18593;51.426;7.030;2024-03-29T12:03:29;98281.09;;;13.10;72.44
32081;BME280;18593;51.426;7.030;2024-03-29T12:05:58;98283.50;;;13.11;71.46
32081;BME280;18593;51.426;7.030;2024-03-29T12:08:28;98282.69;;;13.11;72.14
32081;BME280;18593;51.426;7.030;2024-03-29T12:10:57;98287.56;;;13.09;72.02
32081;BME280;18593;51.426;7.030;2024-03-29T12:13:25;98280.81;;;13.11;72.29
32081;BME280;18593;51.426;7.030;2024-03-29T12:15:52;98287.22;;;13.15;71.53
32081;BME280;18593;51.426;7.030;2024-03-29T12:18:21;98295.47;;;13.19;70.81
32081;BME280;18593;51.426;7.030;2024-03-29T12:20:49;98290.44;;;13.18;69.54
32081;BME280;18593;51.426;7.030;2024-03-29T12:23:17;98286.38;;;13.20;69.66
32081;BME280;18593;51.426;7.030;2024-03-29T12:25:46;98297.34;;;13.24;69.50
32081;BME280;18593;51.426;7.030;2024-03-29T12:28:14;98289.31;;;13.24;68.34
32081;BME280;18593;51.426;7.030;2024-03-29T12:30:45;98292.00;;;13.24;66.53
32081;BME280;18593;51.426;7.030;2024-03-29T12:33:21;98309.34;;;13.26;66.66
32081;BME280;18593;51.426;7.030;2024-03-29T12:35:52;98296.56;;;13.23;66.03
32081;BME280;18593;51.426;7.030;2024-03-29T12:38:22;98294.13;;;13.22;64.92
32081;BME280;18593;51.426;7.030;2024-03-29T12:40:50;98301.63;;;13.25;65.95
32081;BME280;18593;51.426;7.030;2024-03-29T12:43:22;98309.31;;;13.31;66.09
32081;BME280;18593;51.426;7.030;2024-03-29T12:45:51;98307.16;;;13.33;64.92
32081;BME280;18593;51.426;7.030;2024-03-29T12:48:22;98303.16;;;13.31;65.36
32081;BME280;18593;51.426;7.030;2024-03-29T12:50:50;98301.06;;;13.28;63.98
32081;BME280;18593;51.426;7.030;2024-03-29T12:53:22;98301.84;;;13.28;64.07
32081;BME280;18593;51.426;7.030;2024-03-29T12:55:50;98307.44;;;13.32;65.81
32081;BME280;18593;51.426;7.030;2024-03-29T12:58:17;98304.75;;;13.32;65.14
32081;BME280;18593;51.426;7.030;2024-03-29T13:00:47;98305.78;;;13.36;64.15
32081;BME280;18593;51.426;7.030;2024-03-29T13:03:16;98316.50;;;13.36;64.62
32081;BME280;18593;51.426;7.030;2024-03-29T13:05:47;98323.97;;;13.39;63.81
32081;BME280;18593;51.426;7.030;2024-03-29T13:08:16;98314.00;;;13.45;64.49
32081;BME280;18593;51.426;7.030;2024-03-29T13:10:44;98309.41;;;13.50;64.20
32081;BME280;18593;51.426;7.030;2024-03-29T13:13:12;98296.47;;;13.57;62.15